Decoded Metar for KESN (EASTON/NEWNAM in MD, USA) (IATA:ESN) | Meteo·Mobile Aviation Weather
aviador You're here:

KESN Decoded Metar

EASTON/NEWNAM in MD, USA
Report Time2018-10-18 15:54:00
UTC Time2018-10-18 16:37:17
Flight Rules vfr VFR
Wind290° at 06 Gusting to 16 kt
W.Decomp.*RWY 33: 5.2 kt HW 3 kt LCW
RWY 22: 1.0 kt HW 5.9 kt RCW
W.Rank290° ranks 29
Current wind is below 290° avg. (6.5)
Visibility9999 m
Phenomena:N/A
Clouds:Scattered 070 Hf
Expected CloudBase > 5,600 ft AGL from Temp-Dew spread
CeilingNone
Temp13°C (ISA -2)
Dew Point-1°C (38% RH)
AAT8.7°C
QNH1031 hPa
Density Alt-673 ft
Elevation72 ft
Report Wrong Elevation
Raw Report
KESN 181554Z 29006G16KT 10SM SCT070 13/M01 A3046=

Extra information for KESN:More info

Metar Taf Metar & Taf Last 4 Metars F.Rules Stats Wind Profile Meteogram Temp Stats Airport Information Weather charts Add Link Nearby VenuesMetar ALERT Operation Metar Decoded Social comments

AIRNAV info for KESN